Time;durP1;ratioP1;P1;durP2;ratioP2;P2;SDS_P1;SDS_P2;PMS_P1;PMS_P2;Temp;Humidity;BMP_temperature;BMP_pressure;BME280_temperature;BME280_humidity;BME280_pressure;Samples;Min_cycle;Max_cycle;Signal;HPM_P1;HPM_P2
2022/05/12 00:00:09;;;;;;;6.30;6.00;;;;;;;11.23;89.43;100862.28;5026990;28;20109;-62
2022/05/12 00:02:36;;;;;;;6.40;6.10;;;;;;;11.26;89.53;100863.78;5022610;28;20025;-61
2022/05/12 00:05:03;;;;;;;5.80;5.60;;;;;;;11.27;88.41;100863.63;5035779;28;20121;-60
2022/05/12 00:07:29;;;;;;;6.35;6.05;;;;;;;11.23;90.06;100851.66;5035488;28;20035;-61
2022/05/12 00:09:55;;;;;;;6.28;5.97;;;;;;;11.22;87.65;100855.31;5045414;28;20469;-61
2022/05/12 00:12:21;;;;;;;6.00;5.80;;;;;;;11.16;87.72;100857.81;5028248;28;20028;-62
2022/05/12 00:14:46;;;;;;;5.82;5.63;;;;;;;11.17;86.19;100849.72;5036418;28;20025;-61
2022/05/12 00:17:12;;;;;;;6.20;5.95;;;;;;;11.34;86.89;100851.31;5036065;28;20022;-61
2022/05/12 00:19:37;;;;;;;6.10;5.90;;;;;;;11.20;84.75;100851.19;5035010;28;20025;-60
2022/05/12 00:22:03;;;;;;;5.90;5.70;;;;;;;11.27;84.40;100849.50;5035161;28;20037;-62
2022/05/12 00:24:28;;;;;;;6.07;5.88;;;;;;;11.27;83.84;100846.84;5035053;28;20025;-62
2022/05/12 00:26:54;;;;;;;5.90;5.70;;;;;;;11.28;81.79;100848.50;5034764;28;20519;-61
2022/05/12 00:29:19;;;;;;;5.97;5.78;;;;;;;11.31;83.20;100851.66;5035009;28;20029;-61
2022/05/12 00:31:47;;;;;;;6.00;5.80;;;;;;;11.32;86.59;100853.31;5026262;28;20107;-62
2022/05/12 00:34:14;;;;;;;6.10;5.90;;;;;;;11.29;85.83;100858.13;5031880;28;20038;-61
2022/05/12 00:36:39;;;;;;;6.28;5.97;;;;;;;11.35;87.71;100857.44;5032857;28;20562;-62
2022/05/12 00:39:05;;;;;;;5.90;5.70;;;;;;;11.33;88.73;100854.97;5034965;28;20081;-61
2022/05/12 00:41:32;;;;;;;5.85;5.65;;;;;;;11.35;88.14;100858.28;5034564;28;20103;-61
2022/05/12 00:44:02;;;;;;;6.00;5.80;;;;;;;11.26;88.52;100850.50;5034373;28;20054;-61
2022/05/12 00:46:31;;;;;;;5.93;5.72;;;;;;;11.28;88.18;100849.34;5034543;28;20111;-62
2022/05/12 00:49:21;;;;;;;5.85;5.65;;;;;;;11.27;86.06;100850.34;5034456;28;20022;-62
2022/05/12 00:51:56;;;;;;;5.95;5.75;;;;;;;11.28;86.37;100838.72;5033922;28;20092;-61
2022/05/12 00:54:28;;;;;;;5.90;5.70;;;;;;;11.13;87.40;100844.91;5034362;28;20022;-61
2022/05/12 00:56:54;;;;;;;5.50;5.30;;;;;;;11.11;88.09;100837.13;5034434;28;20017;-62
2022/05/12 00:59:28;;;;;;;5.85;5.65;;;;;;;11.16;87.14;100845.38;5039061;28;20032;-61
2022/05/12 01:01:56;;;;;;;6.07;5.88;;;;;;;11.06;88.90;100834.13;5042026;28;20025;-61
2022/05/12 01:04:22;;;;;;;6.00;5.80;;;;;;;11.08;88.74;100840.09;5031036;28;20121;-62
2022/05/12 01:06:49;;;;;;;5.90;5.70;;;;;;;11.01;89.04;100844.41;5024476;28;20040;-60
2022/05/12 01:09:15;;;;;;;6.00;5.80;;;;;;;11.00;89.67;100842.78;5034169;28;20037;-61
2022/05/12 01:11:41;;;;;;;5.70;5.50;;;;;;;10.97;89.19;100835.97;5034122;28;20562;-60
2022/05/12 01:14:08;;;;;;;5.93;5.72;;;;;;;11.01;90.53;100839.94;5034325;28;20112;-60
2022/05/12 01:16:53;;;;;;;6.25;5.95;;;;;;;10.91;90.66;100833.19;5028878;28;20017;-61
2022/05/12 01:19:31;;;;;;;5.85;5.65;;;;;;;10.84;91.51;100840.97;5022911;28;20531;-62
2022/05/12 01:21:58;;;;;;;5.90;5.70;;;;;;;10.92;90.54;100840.13;5034122;28;20036;-62
2022/05/12 01:24:29;;;;;;;6.00;5.80;;;;;;;10.97;90.08;100840.47;5031982;28;20392;-61
2022/05/12 01:26:55;;;;;;;5.70;5.50;;;;;;;10.98;90.30;100829.69;5033893;28;20534;-61
2022/05/12 01:29:20;;;;;;;6.13;5.90;;;;;;;10.98;89.66;100837.63;5034182;28;20037;-61
2022/05/12 01:31:46;;;;;;;6.00;5.80;;;;;;;10.97;89.92;100827.19;5033538;28;20425;-61
2022/05/12 01:34:12;;;;;;;5.90;5.70;;;;;;;10.97;90.34;100837.81;5033899;28;20417;-61
2022/05/12 01:36:38;;;;;;;5.78;5.57;;;;;;;10.97;90.85;100838.63;5033646;28;20043;-61
2022/05/12 01:39:07;;;;;;;6.10;5.90;;;;;;;10.91;91.29;100841.97;5034273;28;20032;-63
2022/05/12 01:41:32;;;;;;;6.15;5.90;;;;;;;10.92;92.30;100845.44;5027731;28;20037;-62
2022/05/12 01:44:00;;;;;;;5.90;5.70;;;;;;;10.92;93.01;100843.63;5033632;28;20038;-62
2022/05/12 01:46:26;;;;;;;5.78;5.57;;;;;;;10.91;91.91;100846.44;5033988;28;20029;-62
2022/05/12 01:48:52;;;;;;;5.90;5.70;;;;;;;10.94;93.27;100848.75;5033639;28;20033;-61
2022/05/12 01:51:17;;;;;;;5.97;5.78;;;;;;;10.78;92.42;100845.13;5033684;28;20469;-63
2022/05/12 01:53:43;;;;;;;5.82;5.63;;;;;;;10.75;90.97;100836.69;5033765;28;20025;-62
2022/05/12 01:56:08;;;;;;;6.43;6.13;;;;;;;10.70;91.71;100842.50;5032447;28;20496;-62
2022/05/12 01:58:34;;;;;;;6.28;5.97;;;;;;;10.65;90.20;100844.84;5033159;28;20026;-62
2022/05/12 02:01:00;;;;;;;5.97;5.78;;;;;;;10.54;90.46;100844.34;5020571;28;20022;-62
2022/05/12 02:03:26;;;;;;;5.90;5.70;;;;;;;10.61;90.16;100838.19;5033166;28;20124;-62
2022/05/12 02:05:51;;;;;;;6.10;5.85;;;;;;;10.64;90.45;100848.47;5032256;28;20041;-63
2022/05/12 02:08:18;;;;;;;5.90;5.70;;;;;;;10.63;90.21;100848.63;5041249;28;20051;-62
2022/05/12 02:10:47;;;;;;;5.82;5.63;;;;;;;10.53;90.84;100856.78;5031318;28;20030;-61
2022/05/12 02:13:14;;;;;;;5.90;5.70;;;;;;;10.50;91.89;100851.78;5030180;28;20029;-60
2022/05/12 02:15:41;;;;;;;6.30;6.00;;;;;;;10.41;90.83;100832.41;5032187;28;20439;-62
2022/05/12 02:18:09;;;;;;;5.80;5.60;;;;;;;10.55;90.64;100849.47;5030451;28;20116;-62
2022/05/12 02:20:35;;;;;;;6.00;5.80;;;;;;;10.47;90.83;100855.59;5019681;28;20057;-61
2022/05/12 02:23:01;;;;;;;6.30;6.00;;;;;;;10.40;93.36;100851.97;5032796;28;20056;-62
2022/05/12 02:25:26;;;;;;;6.07;5.82;;;;;;;10.40;98.19;100856.44;5027949;28;20377;-62
2022/05/12 02:27:52;;;;;;;6.13;5.82;;;;;;;10.24;100.00;100857.25;5032358;28;20038;-62
2022/05/12 02:30:24;;;;;;;5.95;5.75;;;;;;;10.08;100.00;100854.56;5032592;28;20107;-62
2022/05/12 02:32:50;;;;;;;6.10;5.80;;;;;;;10.00;100.00;100862.50;5032246;28;20404;-62
2022/05/12 02:35:16;;;;;;;5.93;5.72;;;;;;;10.14;100.00;100857.38;5032426;28;20022;-62
2022/05/12 02:37:42;;;;;;;6.30;6.00;;;;;;;10.19;100.00;100862.19;5032458;28;20018;-62
2022/05/12 02:40:10;;;;;;;5.90;5.70;;;;;;;10.16;100.00;100862.53;5032539;28;20052;-61
2022/05/12 02:42:35;;;;;;;6.30;6.00;;;;;;;10.44;100.00;100865.72;5032385;28;20049;-61
2022/05/12 02:45:01;;;;;;;6.00;5.80;;;;;;;10.56;100.00;100868.88;5032395;28;20048;-61
2022/05/12 02:47:26;;;;;;;6.20;5.90;;;;;;;10.68;100.00;100865.72;5031355;28;20033;-61
2022/05/12 02:49:52;;;;;;;5.97;5.78;;;;;;;10.92;100.00;100861.38;5032299;28;20096;-62
2022/05/12 02:52:17;;;;;;;6.35;6.05;;;;;;;11.05;98.61;100849.22;5031666;28;20060;-63
2022/05/12 02:54:43;;;;;;;6.05;5.82;;;;;;;11.32;97.43;100861.28;5032231;28;20381;-61
2022/05/12 02:57:08;;;;;;;6.03;5.82;;;;;;;11.50;96.38;100865.53;5030551;28;20033;-62
2022/05/12 02:59:34;;;;;;;5.80;5.60;;;;;;;11.77;94.64;100870.38;5032334;28;20041;-61
2022/05/12 03:02:00;;;;;;;5.93;5.72;;;;;;;11.82;94.45;100859.25;5032112;28;20026;-61
2022/05/12 03:04:26;;;;;;;6.25;6.00;;;;;;;12.06;92.52;100876.91;5031713;28;20029;-62
2022/05/12 03:06:52;;;;;;;5.93;5.72;;;;;;;12.40;90.67;100874.66;5031791;28;20112;-62
2022/05/12 03:09:18;;;;;;;5.88;5.68;;;;;;;12.60;87.28;100875.00;5031311;28;20655;-61
2022/05/12 03:11:43;;;;;;;5.97;5.78;;;;;;;12.90;82.88;100883.06;5031705;28;20022;-61
2022/05/12 03:14:09;;;;;;;6.10;5.90;;;;;;;13.20;78.96;100875.97;5031628;28;20044;-61
2022/05/12 03:16:35;;;;;;;6.40;6.10;;;;;;;13.55;75.82;100880.53;5031334;28;20017;-62
2022/05/12 03:19:01;;;;;;;6.90;6.60;;;;;;;13.72;75.56;100880.34;5029828;28;20091;-62
2022/05/12 03:21:26;;;;;;;6.20;6.00;;;;;;;14.53;71.11;100884.50;5031777;28;20021;-61
2022/05/12 03:23:52;;;;;;;6.43;6.13;;;;;;;16.07;63.90;100882.56;5030514;28;20029;-62
2022/05/12 03:26:19;;;;;;;6.50;6.20;;;;;;;17.39;58.30;100890.63;5031634;28;20032;-61
2022/05/12 03:28:45;;;;;;;6.43;6.13;;;;;;;17.99;54.85;100893.09;5031849;28;20060;-61
2022/05/12 03:31:10;;;;;;;6.50;6.20;;;;;;;18.43;53.41;100892.22;5032129;28;20420;-61
2022/05/12 03:33:37;;;;;;;6.57;6.28;;;;;;;19.24;51.25;100890.50;5031445;28;20041;-62
2022/05/12 03:36:04;;;;;;;7.13;6.82;;;;;;;20.00;48.89;100892.75;5031009;28;20072;-62
2022/05/12 03:38:30;;;;;;;6.60;6.30;;;;;;;20.91;45.71;100901.56;5018784;28;20025;-62
2022/05/12 03:40:55;;;;;;;6.75;6.45;;;;;;;21.47;43.78;100908.25;5030405;28;20032;-63
2022/05/12 03:46:06;;;;;;;6.68;6.38;;;;;;;22.29;41.12;100908.00;5030706;28;20037;-63
2022/05/12 03:48:36;;;;;;;6.60;6.30;;;;;;;22.12;41.18;100909.84;5029428;28;20413;-61
2022/05/12 03:51:03;;;;;;;6.53;6.22;;;;;;;22.56;40.31;100908.22;5018552;28;20397;-62
2022/05/12 03:53:30;;;;;;;6.57;6.28;;;;;;;23.24;38.50;100909.03;5031575;28;20507;-62
2022/05/12 03:55:56;;;;;;;6.95;6.65;;;;;;;23.98;37.47;100917.56;5030228;28;20033;-62
2022/05/12 03:58:22;;;;;;;6.80;6.50;;;;;;;25.15;35.45;100915.94;5031214;28;20036;-63
2022/05/12 04:00:49;;;;;;;6.90;6.60;;;;;;;25.65;34.69;100922.72;5027267;28;20025;-61
2022/05/12 04:03:15;;;;;;;6.90;6.60;;;;;;;26.41;33.21;100930.34;5028048;28;20029;-61
2022/05/12 04:05:41;;;;;;;6.93;6.63;;;;;;;26.35;33.23;100925.94;5031438;28;20026;-62
2022/05/12 04:08:07;;;;;;;6.47;6.18;;;;;;;26.68;32.18;100914.56;5031108;28;20017;-61
2022/05/12 04:10:33;;;;;;;7.00;6.70;;;;;;;27.56;31.06;100921.53;5031411;28;20029;-63
2022/05/12 04:12:59;;;;;;;6.88;6.57;;;;;;;27.75;30.40;100928.00;5031412;28;20022;-62
2022/05/12 04:15:24;;;;;;;7.13;6.82;;;;;;;27.59;30.92;100922.88;5031472;28;20392;-62
2022/05/12 04:18:00;;;;;;;7.07;6.78;;;;;;;28.45;29.22;100935.28;5027390;28;20469;-62
2022/05/12 04:20:31;;;;;;;7.10;6.80;;;;;;;29.07;28.71;100941.88;5030484;28;20508;-62
2022/05/12 04:22:57;;;;;;;6.80;6.50;;;;;;;29.19;27.61;100939.56;5028016;28;20044;-62
2022/05/12 04:25:22;;;;;;;6.90;6.60;;;;;;;29.61;27.56;100938.84;5023445;28;20489;-63
2022/05/12 04:27:48;;;;;;;7.07;6.78;;;;;;;29.37;27.98;100938.00;5025729;28;20129;-61
2022/05/12 04:30:15;;;;;;;6.88;6.57;;;;;;;29.94;27.29;100945.25;5035022;28;20026;-61
2022/05/12 04:32:41;;;;;;;6.80;6.50;;;;;;;30.05;26.48;100940.47;5034402;28;20087;-63
2022/05/12 04:35:12;;;;;;;6.70;6.40;;;;;;;29.83;26.68;100949.25;5034458;28;20523;-62
2022/05/12 04:37:40;;;;;;;6.85;6.55;;;;;;;28.78;27.63;100942.63;5034537;28;20044;-63
2022/05/12 04:40:09;;;;;;;7.05;6.75;;;;;;;29.02;27.29;100944.66;5026427;28;20157;-62
2022/05/12 04:42:35;;;;;;;6.80;6.50;;;;;;;30.27;26.11;100957.16;5035044;28;20057;-62
2022/05/12 04:45:01;;;;;;;7.10;6.80;;;;;;;30.18;26.09;100958.91;5034535;28;20034;-63
2022/05/12 04:47:26;;;;;;;7.10;6.80;;;;;;;30.74;25.88;100954.53;5034020;28;20041;-62
2022/05/12 04:49:52;;;;;;;7.10;6.80;;;;;;;29.12;27.54;100956.31;5034144;28;20061;-62
2022/05/12 04:52:18;;;;;;;7.03;6.72;;;;;;;29.07;27.99;100952.78;5034473;28;20036;-62
2022/05/12 04:54:43;;;;;;;7.00;6.70;;;;;;;29.29;27.69;100955.03;5033613;28;20064;-63
2022/05/12 04:57:09;;;;;;;7.00;6.70;;;;;;;28.79;28.88;100957.09;5033452;28;20036;-63
2022/05/12 04:59:34;;;;;;;7.10;6.80;;;;;;;28.77;29.47;100960.13;5034099;28;20021;-61
2022/05/12 05:02:00;;;;;;;7.10;6.80;;;;;;;29.34;28.52;100957.72;5033079;28;20029;-62
2022/05/12 05:04:26;;;;;;;7.10;6.80;;;;;;;28.23;29.41;100957.50;5033418;28;20036;-62
2022/05/12 05:06:52;;;;;;;6.90;6.60;;;;;;;28.82;29.44;100962.00;5034020;28;20374;-61
2022/05/12 05:09:17;;;;;;;7.30;7.00;;;;;;;29.00;28.62;100961.31;5032687;28;20451;-61
2022/05/12 05:11:43;;;;;;;7.20;6.90;;;;;;;28.22;29.95;100953.94;5031261;28;20025;-61
2022/05/12 05:14:08;;;;;;;7.10;6.80;;;;;;;28.35;29.97;100958.81;5032398;28;20032;-61
2022/05/12 05:16:34;;;;;;;7.10;6.80;;;;;;;29.10;28.59;100955.78;5033146;28;20025;-62
2022/05/12 05:19:01;;;;;;;7.00;6.70;;;;;;;28.79;29.03;100952.50;5030722;28;20025;-61
2022/05/12 05:21:26;;;;;;;7.05;6.75;;;;;;;29.28;28.78;100954.22;5034223;28;20507;-61
2022/05/12 05:23:52;;;;;;;7.25;6.95;;;;;;;29.44;28.13;100958.41;5041342;28;20107;-61
2022/05/12 05:26:18;;;;;;;7.10;6.80;;;;;;;29.78;27.64;100953.97;5032209;28;20036;-61
2022/05/12 05:28:44;;;;;;;7.10;6.80;;;;;;;29.24;28.27;100958.66;5032459;28;20447;-61
2022/05/12 05:31:09;;;;;;;7.10;6.80;;;;;;;29.59;27.80;100953.91;5033371;28;20048;-61
2022/05/12 05:33:35;;;;;;;7.13;6.82;;;;;;;28.53;29.07;100956.50;5033395;28;20033;-63
2022/05/12 05:36:01;;;;;;;7.10;6.80;;;;;;;28.98;28.34;100957.25;5033459;28;20036;-63
2022/05/12 05:38:27;;;;;;;7.00;6.70;;;;;;;30.37;26.47;100958.91;5033710;28;20025;-63
2022/05/12 05:40:53;;;;;;;7.20;6.90;;;;;;;31.41;25.35;100955.00;5028412;28;20025;-61
2022/05/12 05:43:19;;;;;;;7.00;6.70;;;;;;;30.76;26.18;100960.53;5021037;28;20045;-61
2022/05/12 05:45:45;;;;;;;7.10;6.80;;;;;;;31.41;26.09;100951.44;5033171;28;20132;-61
2022/05/12 05:48:10;;;;;;;7.30;7.00;;;;;;;31.47;25.54;100948.28;5033031;28;20104;-62
2022/05/12 05:53:28;;;;;;;7.25;6.95;;;;;;;31.09;25.81;100955.84;5021286;28;20079;-61
2022/05/12 05:55:56;;;;;;;7.25;6.95;;;;;;;32.56;24.88;100954.72;5032964;28;20032;-63
2022/05/12 05:58:23;;;;;;;7.13;6.82;;;;;;;31.93;24.99;100944.63;5033440;28;20112;-62
2022/05/12 06:00:49;;;;;;;7.07;6.78;;;;;;;32.63;24.74;100949.63;5019440;28;20072;-61
2022/05/12 06:03:16;;;;;;;7.40;7.10;;;;;;;32.60;23.65;100943.91;5032827;28;20036;-62
2022/05/12 06:05:41;;;;;;;7.30;7.00;;;;;;;32.23;24.23;100943.13;5032331;28;20473;-62
2022/05/12 06:08:10;;;;;;;7.20;6.90;;;;;;;32.51;24.08;100943.88;5032395;28;20040;-62
2022/05/12 06:10:36;;;;;;;7.05;6.75;;;;;;;33.33;23.67;100944.50;5031878;28;20048;-61
2022/05/12 06:13:03;;;;;;;7.13;6.82;;;;;;;34.03;22.66;100935.38;5032391;28;20029;-63
2022/05/12 06:15:29;;;;;;;7.32;7.03;;;;;;;33.18;23.27;100937.50;5028864;28;20466;-62
2022/05/12 06:17:55;;;;;;;7.28;6.97;;;;;;;32.51;24.40;100934.81;5032545;28;20041;-61
2022/05/12 06:20:22;;;;;;;7.15;6.85;;;;;;;34.19;22.95;100939.25;5032461;28;20193;-61
2022/05/12 06:22:47;;;;;;;7.05;6.75;;;;;;;35.24;21.62;100942.69;5031136;28;20108;-62
2022/05/12 06:25:16;;;;;;;7.00;6.70;;;;;;;34.74;22.02;100938.59;5030387;28;20117;-61
2022/05/12 06:27:43;;;;;;;7.00;6.70;;;;;;;34.22;22.98;100933.09;5022386;28;20033;-63
2022/05/12 06:30:13;;;;;;;7.30;7.00;;;;;;;35.56;21.80;100936.56;5031071;28;20026;-63
2022/05/12 06:32:40;;;;;;;7.20;6.90;;;;;;;35.01;21.84;100931.91;5030762;28;20103;-63
2022/05/12 06:35:08;;;;;;;7.45;7.15;;;;;;;35.76;20.92;100926.66;5026560;28;20057;-63
2022/05/12 06:37:35;;;;;;;7.35;7.05;;;;;;;34.47;22.13;100927.94;5030392;28;20025;-63
2022/05/12 06:40:00;;;;;;;7.30;7.00;;;;;;;34.94;21.82;100923.31;5035577;28;20025;-63
2022/05/12 06:42:26;;;;;;;6.97;6.68;;;;;;;35.29;21.55;100921.25;5030838;28;20040;-62
2022/05/12 06:44:52;;;;;;;7.45;7.15;;;;;;;36.20;20.89;100924.41;5030287;28;20033;-64
2022/05/12 06:47:17;;;;;;;7.38;7.07;;;;;;;37.49;19.32;100921.44;5028184;28;20032;-64
2022/05/12 06:49:43;;;;;;;7.50;7.20;;;;;;;37.02;19.96;100927.41;5030936;28;20087;-64
2022/05/12 06:52:10;;;;;;;7.47;7.18;;;;;;;37.22;19.56;100922.91;5023575;28;20029;-63
2022/05/12 06:54:37;;;;;;;7.35;7.05;;;;;;;36.97;19.26;100920.13;5040142;28;20115;-64
2022/05/12 06:57:04;;;;;;;7.20;6.90;;;;;;;34.96;21.64;100920.22;5027055;28;20029;-63
2022/05/12 06:59:30;;;;;;;7.05;6.75;;;;;;;36.76;19.81;100913.84;5030086;28;20029;-63
2022/05/12 07:01:55;;;;;;;7.10;6.80;;;;;;;37.19;19.28;100918.88;5031556;28;20597;-64
2022/05/12 07:04:24;;;;;;;7.45;7.15;;;;;;;37.52;19.06;100920.72;5028624;28;20132;-63
2022/05/12 07:06:50;;;;;;;7.18;6.88;;;;;;;36.63;19.50;100909.41;5030010;28;20026;-62
2022/05/12 07:09:18;;;;;;;7.25;6.95;;;;;;;36.33;19.44;100912.28;5031127;28;20027;-63
2022/05/12 07:11:44;;;;;;;7.25;6.95;;;;;;;36.78;19.09;100909.56;5030242;28;20092;-63
2022/05/12 07:14:10;;;;;;;7.32;7.03;;;;;;;37.89;18.04;100908.47;5031179;28;20017;-64
2022/05/12 07:16:36;;;;;;;7.47;7.18;;;;;;;37.05;19.37;100910.91;5035658;28;20076;-64
2022/05/12 07:19:02;;;;;;;7.30;7.00;;;;;;;37.99;18.37;100912.72;5030881;28;20064;-63
2022/05/12 07:26:55;;;;;;;7.50;7.20;;;;;;;38.46;17.17;100914.88;5031107;28;20036;-63
2022/05/12 07:29:25;;;;;;;7.32;7.03;;;;;;;38.12;17.73;100906.00;5031002;28;20044;-65
2022/05/12 07:31:50;;;;;;;7.10;6.80;;;;;;;37.99;18.49;100917.47;5030026;28;20032;-64
2022/05/12 07:34:17;;;;;;;7.35;7.05;;;;;;;37.38;19.04;100923.84;5025510;28;20029;-64
2022/05/12 07:36:50;;;;;;;7.30;7.00;;;;;;;38.36;17.52;100918.16;5030990;28;20021;-65
2022/05/12 07:39:17;;;;;;;7.15;6.85;;;;;;;38.02;17.10;100914.78;5031108;28;20137;-64
2022/05/12 07:41:42;;;;;;;7.22;6.93;;;;;;;35.39;20.10;100909.81;5031180;28;20033;-64
2022/05/12 07:44:09;;;;;;;7.25;6.95;;;;;;;35.85;19.22;100916.41;5030787;28;20054;-63
2022/05/12 07:46:36;;;;;;;7.18;6.88;;;;;;;36.87;18.06;100915.03;5030881;28;20469;-65
2022/05/12 07:49:03;;;;;;;7.10;6.80;;;;;;;34.11;20.55;100906.22;5029928;28;20061;-64
2022/05/12 07:51:28;;;;;;;7.07;6.78;;;;;;;35.46;19.05;100900.25;5031191;28;20092;-63
2022/05/12 07:53:54;;;;;;;7.10;6.80;;;;;;;33.91;21.12;100907.66;5026039;28;20101;-64
2022/05/12 07:56:25;;;;;;;7.00;6.70;;;;;;;35.55;19.82;100909.28;5031026;28;20428;-63
2022/05/12 07:58:53;;;;;;;7.00;6.70;;;;;;;34.85;20.79;100908.72;5031072;28;20025;-63
2022/05/12 08:01:20;;;;;;;7.20;6.90;;;;;;;35.15;20.11;100904.91;5028978;28;20021;-63
2022/05/12 08:03:47;;;;;;;6.95;6.65;;;;;;;34.40;21.46;100895.34;5032607;28;20102;-64
2022/05/12 08:06:16;;;;;;;7.07;6.78;;;;;;;33.35;22.48;100898.28;5034774;28;20068;-64
2022/05/12 08:08:48;;;;;;;7.05;6.75;;;;;;;34.11;22.14;100907.03;5035190;28;20033;-64
2022/05/12 08:11:14;;;;;;;7.00;6.70;;;;;;;33.93;22.01;100900.69;5034917;28;20051;-63
2022/05/12 08:13:42;;;;;;;7.15;6.85;;;;;;;33.74;22.40;100898.22;5034086;28;20519;-64
2022/05/12 08:16:08;;;;;;;7.10;6.80;;;;;;;32.13;24.43;100888.47;5033453;28;20052;-63
2022/05/12 08:18:37;;;;;;;7.20;6.90;;;;;;;31.45;24.38;100886.66;5034473;28;20033;-63
2022/05/12 08:21:03;;;;;;;7.22;6.93;;;;;;;33.13;23.22;100894.47;5034670;28;20045;-66
2022/05/12 08:23:29;;;;;;;6.97;6.68;;;;;;;31.99;23.54;100888.50;5034431;28;20095;-66
2022/05/12 08:25:54;;;;;;;7.30;7.00;;;;;;;32.53;23.93;100883.13;5020526;28;20025;-64
2022/05/12 08:28:23;;;;;;;7.00;6.70;;;;;;;33.74;22.69;100883.66;5034791;28;20082;-64
2022/05/12 08:30:49;;;;;;;7.40;7.10;;;;;;;32.65;23.54;100886.91;5023000;28;20397;-65
2022/05/12 08:33:16;;;;;;;6.88;6.57;;;;;;;32.92;23.42;100874.97;5033546;28;20029;-66
2022/05/12 08:35:42;;;;;;;7.07;6.78;;;;;;;32.62;23.27;100878.50;5032142;28;20489;-64
2022/05/12 08:38:09;;;;;;;7.00;6.70;;;;;;;31.56;24.74;100869.66;5034179;28;20604;-65
2022/05/12 08:41:04;;;;;;;6.78;6.47;;;;;;;32.55;23.60;100872.66;5034406;28;20061;-65
2022/05/12 08:43:44;;;;;;;7.03;6.72;;;;;;;31.28;25.06;100865.31;5020381;28;20055;-65
2022/05/12 08:46:15;;;;;;;6.82;6.53;;;;;;;32.35;23.70;100876.72;5033863;28;20029;-65
2022/05/12 08:48:43;;;;;;;6.88;6.57;;;;;;;32.88;23.65;100868.47;5026119;28;20039;-65
2022/05/12 08:51:17;;;;;;;6.90;6.60;;;;;;;31.39;25.15;100857.72;5033559;28;20021;-65
2022/05/12 08:53:58;;;;;;;6.85;6.55;;;;;;;31.14;25.48;100872.72;5031961;28;20030;-65
2022/05/12 08:56:25;;;;;;;7.10;6.80;;;;;;;31.74;25.60;100867.13;5028578;28;20033;-67
2022/05/12 08:58:55;;;;;;;7.10;6.80;;;;;;;32.26;24.18;100862.91;5031066;28;20025;-65
2022/05/12 09:01:42;;;;;;;7.30;7.00;;;;;;;30.90;25.90;100857.28;5027590;28;20026;-65
2022/05/12 09:04:10;;;;;;;7.10;6.80;;;;;;;30.09;26.01;100867.66;5031829;28;20031;-64
2022/05/12 09:06:46;;;;;;;6.90;6.60;;;;;;;30.95;25.76;100859.91;5036985;28;20017;-65
2022/05/12 09:09:26;;;;;;;6.80;6.50;;;;;;;31.11;25.34;100851.41;5030842;28;20055;-64
2022/05/12 09:12:27;;;;;;;7.18;6.88;;;;;;;31.33;25.43;100855.06;5032186;28;20038;-64
2022/05/12 09:15:04;;;;;;;7.00;6.70;;;;;;;31.95;24.26;100860.06;5028518;28;20029;-65
2022/05/12 09:17:38;;;;;;;6.93;6.63;;;;;;;30.11;26.92;100851.75;5028605;28;20455;-65
2022/05/12 09:20:07;;;;;;;6.95;6.65;;;;;;;30.94;25.50;100847.34;5031248;28;20036;-64
2022/05/12 09:22:32;;;;;;;6.82;6.53;;;;;;;30.30;26.69;100843.53;5032896;28;20037;-64
2022/05/12 09:24:58;;;;;;;7.30;7.00;;;;;;;30.81;25.98;100848.13;5032317;28;20025;-65
2022/05/12 09:27:32;;;;;;;7.10;6.80;;;;;;;29.87;27.37;100840.88;5033394;28;20065;-64
2022/05/12 09:29:58;;;;;;;6.80;6.50;;;;;;;29.97;27.67;100839.94;5031877;28;20026;-64
2022/05/12 09:32:28;;;;;;;6.80;6.50;;;;;;;30.36;26.61;100834.13;5033475;28;20114;-64
2022/05/12 09:35:12;;;;;;;7.10;6.80;;;;;;;29.70;28.07;100838.66;5032878;28;20449;-64
2022/05/12 09:37:40;;;;;;;6.60;6.30;;;;;;;29.58;28.04;100837.47;5026987;28;20033;-64
2022/05/12 09:40:21;;;;;;;6.72;6.43;;;;;;;29.59;27.43;100834.41;5030219;28;20037;-66
2022/05/12 09:42:52;;;;;;;7.18;6.88;;;;;;;29.58;27.90;100835.53;5028190;28;20046;-65
2022/05/12 09:45:20;;;;;;;6.90;6.60;;;;;;;29.55;28.96;100832.59;5032871;28;20026;-65
2022/05/12 09:47:46;;;;;;;6.90;6.60;;;;;;;30.20;27.39;100828.09;5035102;28;20022;-66
2022/05/12 09:50:22;;;;;;;7.28;6.97;;;;;;;29.59;28.34;100818.03;5029170;28;20558;-66
2022/05/12 09:53:00;;;;;;;6.93;6.63;;;;;;;30.18;27.13;100815.78;5025466;28;20083;-65
2022/05/12 09:55:30;;;;;;;7.07;6.78;;;;;;;29.60;27.77;100819.66;5030183;28;20076;-66
2022/05/12 09:57:57;;;;;;;6.80;6.50;;;;;;;28.95;28.60;100808.44;5028488;28;20024;-66
2022/05/12 10:00:30;;;;;;;6.90;6.60;;;;;;;28.84;28.74;100804.97;5030764;28;20131;-65
2022/05/12 10:09:07;;;;;;;6.80;6.50;;;;;;;28.62;28.93;100804.66;5031297;28;20040;-66
2022/05/12 10:11:41;;;;;;;6.90;6.60;;;;;;;28.87;28.48;100795.41;5056186;28;20033;-64
2022/05/12 10:14:22;;;;;;;6.97;6.68;;;;;;;28.28;29.43;100800.03;5027844;28;20114;-63
2022/05/12 10:16:50;;;;;;;7.00;6.70;;;;;;;27.71;30.02;100787.91;5028510;28;20036;-63
2022/05/12 10:19:22;;;;;;;6.65;6.35;;;;;;;27.44;31.66;100746.63;5026967;28;20535;-62
2022/05/12 10:22:20;;;;;;;6.90;6.60;;;;;;;28.17;27.62;100794.94;5026052;28;20041;-64
2022/05/12 10:25:03;;;;;;;7.10;6.80;;;;;;;28.06;28.16;100780.59;5019956;28;20037;-64
2022/05/12 10:27:50;;;;;;;6.70;6.40;;;;;;;27.60;29.43;100783.59;5023378;28;20097;-63
2022/05/12 10:30:37;;;;;;;6.70;6.40;;;;;;;28.37;26.85;100785.81;5027803;28;20043;-64
2022/05/12 10:33:06;;;;;;;7.00;6.70;;;;;;;27.98;28.28;100778.44;5018297;28;20445;-63
2022/05/12 10:36:00;;;;;;;7.00;6.70;;;;;;;28.15;28.27;100778.88;5027617;28;20045;-63
2022/05/12 10:38:38;;;;;;;7.00;6.70;;;;;;;27.75;28.65;100774.53;5030237;28;20056;-63
2022/05/12 10:41:17;;;;;;;6.90;6.60;;;;;;;27.67;28.61;100777.81;5030629;28;20388;-63
2022/05/12 10:44:03;;;;;;;6.90;6.60;;;;;;;27.89;28.53;100775.50;5030983;28;20477;-64
2022/05/12 10:46:35;;;;;;;6.80;6.50;;;;;;;27.57;29.71;100764.28;5031485;28;20018;-63
2022/05/12 10:49:28;;;;;;;6.90;6.60;;;;;;;27.92;28.98;100763.25;5025807;28;20119;-63
2022/05/12 10:52:15;;;;;;;6.60;6.30;;;;;;;28.05;28.96;100757.13;5027408;28;20029;-63
2022/05/12 10:55:09;;;;;;;6.60;6.30;;;;;;;27.80;28.69;100749.97;5027046;28;20572;-63
2022/05/12 10:58:05;;;;;;;6.88;6.57;;;;;;;27.65;29.34;100748.13;5029995;28;20033;-63
2022/05/12 11:01:12;;;;;;;7.00;6.70;;;;;;;27.90;29.01;100744.41;5026987;28;20067;-66
2022/05/12 11:03:44;;;;;;;6.97;6.68;;;;;;;28.13;28.08;100737.44;5030750;28;20033;-65
2022/05/12 11:06:15;;;;;;;7.10;6.80;;;;;;;27.58;28.67;100728.56;5033540;28;20116;-66
2022/05/12 11:08:51;;;;;;;7.00;6.70;;;;;;;27.56;28.48;100729.94;5021184;28;20343;-61
2022/05/12 11:11:23;;;;;;;6.90;6.60;;;;;;;27.48;28.29;100725.91;5027081;28;20210;-64
2022/05/12 11:14:02;;;;;;;6.78;6.47;;;;;;;27.62;28.45;100726.91;5027252;28;20410;-64
2022/05/12 11:16:34;;;;;;;6.97;6.68;;;;;;;27.70;28.07;100723.59;5024319;28;20026;-64
2022/05/12 11:19:14;;;;;;;6.88;6.57;;;;;;;27.59;27.62;100713.81;5023095;28;20044;-64
2022/05/12 11:21:49;;;;;;;6.60;6.30;;;;;;;27.64;28.27;100712.97;5030648;28;20060;-65
2022/05/12 11:24:34;;;;;;;6.68;6.38;;;;;;;27.92;27.42;100714.97;5027540;28;20029;-63
2022/05/12 11:27:11;;;;;;;;;;;;;;;27.85;27.60;100710.94;5029704;28;20029;-64
2022/05/12 11:29:52;;;;;;;6.60;6.30;;;;;;;27.93;26.03;100713.06;5028148;28;19975;-63
2022/05/12 11:32:41;;;;;;;6.70;6.40;;;;;;;27.91;25.97;100713.34;5024285;28;20061;-67
2022/05/12 11:35:15;;;;;;;6.50;6.20;;;;;;;28.02;25.87;100703.97;5025824;28;20575;-65
2022/05/12 11:37:40;;;;;;;6.38;6.07;;;;;;;27.74;26.15;100702.84;5030949;28;20455;-67
2022/05/12 11:40:06;;;;;;;6.70;6.40;;;;;;;28.06;25.47;100694.13;5029545;28;20029;-60
2022/05/12 11:45:31;;;;;;;6.60;6.30;;;;;;;28.49;25.81;100699.69;5032805;28;20143;-62
2022/05/12 11:48:38;;;;;;;6.80;6.50;;;;;;;28.67;25.02;100687.22;5032619;28;20052;-62
2022/05/12 11:51:20;;;;;;;6.60;6.30;;;;;;;28.83;25.23;100675.00;5027657;28;20172;-62
2022/05/12 11:54:05;;;;;;;6.47;6.18;;;;;;;28.66;25.17;100680.13;5028998;28;20033;-62